Time;durP1;ratioP1;P1;durP2;ratioP2;P2;SDS_P1;SDS_P2;PMS_P1;PMS_P2;Temp;Humidity;BMP_temperature;BMP_pressure;BME280_temperature;BME280_humidity;BME280_pressure;Samples;Min_cycle;Max_cycle;Signal;HPM_P1;HPM_P2
2022/02/14 00:00:46;;;;;;;7.07;4.78;;;7.10;99.90;;;;;;5012415;28;20026;-50
2022/02/14 00:03:12;;;;;;;7.78;4.82;;;7.10;99.90;;;;;;5014622;28;20029;-50
2022/02/14 00:05:38;;;;;;;11.70;6.20;;;7.00;99.90;;;;;;5014750;28;20025;-48
2022/02/14 00:08:03;;;;;;;5.88;5.10;;;7.00;99.90;;;;;;5015033;28;20494;-52
2022/02/14 00:10:29;;;;;;;9.25;5.85;;;6.90;99.90;;;;;;5014714;28;20091;-51
2022/02/14 00:12:55;;;;;;;10.07;5.90;;;6.90;99.90;;;;;;5013282;28;20449;-49
2022/02/14 00:15:20;;;;;;;9.45;5.35;;;6.80;99.90;;;;;;5013242;28;20060;-48
2022/02/14 00:17:47;;;;;;;9.82;5.38;;;6.80;99.90;;;;;;5012994;28;20030;-46
2022/02/14 00:20:12;;;;;;;10.32;5.90;;;6.70;99.90;;;;;;5012589;28;20142;-43
2022/02/14 00:22:40;;;;;;;8.40;5.78;;;6.70;99.90;;;;;;5016143;28;20046;-47
2022/02/14 00:25:07;;;;;;;12.23;5.10;;;6.70;99.90;;;;;;5012013;28;20077;-47
2022/02/14 00:27:33;;;;;;;6.03;4.68;;;6.80;99.90;;;;;;5013661;28;20037;-44
2022/02/14 00:29:59;;;;;;;10.82;4.88;;;6.80;99.90;;;;;;5011990;28;20030;-43
2022/02/14 00:32:24;;;;;;;10.15;5.38;;;6.90;99.90;;;;;;5014094;28;20493;-44
2022/02/14 00:34:51;;;;;;;8.18;5.25;;;7.00;99.90;;;;;;5014150;28;20073;-51
2022/02/14 00:37:18;;;;;;;6.90;5.22;;;7.00;99.90;;;;;;5014078;28;20038;-48
2022/02/14 00:39:44;;;;;;;8.30;5.22;;;7.00;99.90;;;;;;5012367;28;20097;-44
2022/02/14 00:42:10;;;;;;;7.32;4.40;;;7.20;99.90;;;;;;5011659;28;20036;-43
2022/02/14 00:44:36;;;;;;;6.72;4.25;;;7.20;99.90;;;;;;5012711;28;20445;-44
2022/02/14 00:47:02;;;;;;;6.18;4.55;;;7.20;99.90;;;;;;5013402;28;20029;-47
2022/02/14 00:49:28;;;;;;;8.57;5.38;;;7.20;99.90;;;;;;5011882;28;20425;-48
2022/02/14 00:51:53;;;;;;;11.68;4.40;;;7.20;99.90;;;;;;5011463;28;20037;-43
2022/02/14 00:54:19;;;;;;;8.02;4.90;;;7.30;99.90;;;;;;5011228;28;20061;-52
2022/02/14 00:56:44;;;;;;;5.30;3.88;;;7.30;99.90;;;;;;5012176;28;20424;-49
2022/02/14 00:59:10;;;;;;;7.53;4.70;;;7.30;99.90;;;;;;5011180;28;20161;-48
2022/02/14 01:01:35;;;;;;;7.90;4.65;;;7.30;99.90;;;;;;5012345;28;20026;-48
2022/02/14 01:04:01;;;;;;;10.13;4.95;;;7.30;99.90;;;;;;5012617;28;20045;-48
2022/02/14 01:06:27;;;;;;;6.85;4.45;;;7.20;99.90;;;;;;5012838;28;20115;-48
2022/02/14 01:08:53;;;;;;;11.88;4.70;;;7.20;99.90;;;;;;5012850;28;20026;-48
2022/02/14 01:11:19;;;;;;;9.55;4.22;;;7.20;99.90;;;;;;5012384;28;20378;-47
2022/02/14 01:13:45;;;;;;;9.43;5.22;;;7.20;99.90;;;;;;5015188;28;20093;-51
2022/02/14 01:16:11;;;;;;;6.93;4.18;;;7.20;99.90;;;;;;5016632;28;20013;-51
2022/02/14 01:18:36;;;;;;;4.43;3.58;;;7.20;99.90;;;;;;5016019;28;20076;-49
2022/02/14 01:21:02;;;;;;;6.90;4.40;;;7.20;99.90;;;;;;5068421;22;20041;-45
2022/02/14 01:23:28;;;;;;;4.90;3.42;;;7.20;99.90;;;;;;5053375;28;20116;-50
2022/02/14 01:25:53;;;;;;;8.35;4.07;;;7.20;99.90;;;;;;5053989;28;20384;-52
2022/02/14 01:28:19;;;;;;;8.32;4.40;;;7.20;99.90;;;;;;5053514;28;20503;-49
2022/02/14 01:30:44;;;;;;;7.88;3.38;;;7.20;99.80;;;;;;5054784;28;20028;-51
2022/02/14 01:33:10;;;;;;;5.90;4.13;;;7.20;99.70;;;;;;5054226;28;20090;-48
2022/02/14 01:35:36;;;;;;;9.48;3.33;;;7.20;99.70;;;;;;5054617;28;20439;-48
2022/02/14 01:38:02;;;;;;;7.32;3.75;;;7.20;99.50;;;;;;5054710;28;20017;-48
2022/02/14 01:40:28;;;;;;;4.97;3.38;;;7.20;99.50;;;;;;5058111;28;20096;-44
2022/02/14 01:42:53;;;;;;;7.38;3.13;;;7.20;99.50;;;;;;5052900;28;20059;-51
2022/02/14 01:45:19;;;;;;;6.72;3.35;;;7.20;99.50;;;;;;5054495;28;20025;-48
2022/02/14 01:47:45;;;;;;;4.40;3.58;;;7.10;99.50;;;;;;5053521;28;20029;-48
2022/02/14 01:50:13;;;;;;;5.53;3.42;;;7.20;99.50;;;;;;5053079;28;20028;-53
2022/02/14 01:52:40;;;;;;;5.70;3.20;;;7.20;99.60;;;;;;5054227;28;20032;-43
2022/02/14 01:55:08;;;;;;;5.25;3.78;;;7.20;99.40;;;;;;5054260;28;20024;-51
2022/02/14 01:57:35;;;;;;;6.43;4.00;;;7.20;99.40;;;;;;5052968;28;20396;-55
2022/02/14 02:00:10;;;;;;;9.82;4.80;;;7.20;99.40;;;;;;5052680;28;20021;-43
2022/02/14 02:02:36;;;;;;;6.65;3.22;;;7.20;99.30;;;;;;5054716;28;20069;-49
2022/02/14 02:05:02;;;;;;;3.58;2.95;;;7.20;99.20;;;;;;5053915;28;20075;-51
2022/02/14 02:07:28;;;;;;;5.60;4.20;;;7.20;99.10;;;;;;5052956;28;20046;-50
2022/02/14 02:09:53;;;;;;;7.03;3.33;;;7.20;99.30;;;;;;5052666;28;20134;-49
2022/02/14 02:12:26;;;;;;;5.70;4.10;;;7.20;99.10;;;;;;5053795;28;20513;-45
2022/02/14 02:14:56;;;;;;;6.72;4.03;;;7.20;99.10;;;;;;5052443;28;20025;-49
2022/02/14 02:17:24;;;;;;;5.95;3.40;;;7.20;99.30;;;;;;5054158;28;20013;-48
2022/02/14 02:19:50;;;;;;;3.47;2.90;;;7.10;99.30;;;;;;5052315;28;20032;-50
2022/02/14 02:22:16;;;;;;;5.38;3.38;;;7.10;99.40;;;;;;5053731;28;20541;-47
2022/02/14 02:24:46;;;;;;;6.85;3.63;;;7.10;99.20;;;;;;5051123;28;20025;-45
2022/02/14 02:27:12;;;;;;;4.10;3.17;;;7.10;99.20;;;;;;5053772;28;20485;-49
2022/02/14 02:29:38;;;;;;;5.07;3.67;;;7.10;99.30;;;;;;5053568;28;20025;-51
2022/02/14 02:32:06;;;;;;;7.38;4.30;;;7.10;99.30;;;;;;5052150;28;20036;-51
2022/02/14 02:34:31;;;;;;;7.68;3.63;;;7.00;99.20;;;;;;5053237;28;20020;-46
2022/02/14 02:36:58;;;;;;;5.60;3.00;;;7.00;99.30;;;;;;5053554;28;20028;-45
2022/02/14 02:39:25;;;;;;;4.60;3.00;;;7.10;99.40;;;;;;5053444;28;20029;-53
2022/02/14 02:41:51;;;;;;;5.57;3.40;;;7.00;99.40;;;;;;5053446;28;20143;-49
2022/02/14 02:44:17;;;;;;;5.47;3.42;;;7.00;99.40;;;;;;5053419;28;20025;-48
2022/02/14 02:46:43;;;;;;;5.10;3.45;;;7.00;99.30;;;;;;5051895;28;20111;-51
2022/02/14 02:49:20;;;;;;;5.03;3.17;;;7.00;99.50;;;;;;5053489;28;20111;-49
2022/02/14 02:51:51;;;;;;;4.78;3.35;;;7.00;99.50;;;;;;5053912;28;20044;-50
2022/02/14 02:54:19;;;;;;;6.82;3.15;;;6.90;99.40;;;;;;5052977;28;20032;-51
2022/02/14 02:56:46;;;;;;;6.28;3.92;;;7.00;99.40;;;;;;5051883;28;20040;-46
2022/02/14 02:59:12;;;;;;;7.13;3.88;;;7.00;99.30;;;;;;5052712;28;20017;-53
2022/02/14 03:01:39;;;;;;;7.65;3.80;;;7.00;99.40;;;;;;5053172;28;20021;-45
2022/02/14 03:04:06;;;;;;;7.47;3.35;;;7.00;99.30;;;;;;5051315;28;20025;-48
2022/02/14 03:06:32;;;;;;;8.35;3.55;;;7.00;99.30;;;;;;5053000;28;20037;-48
2022/02/14 03:08:58;;;;;;;7.50;3.85;;;7.00;99.30;;;;;;5052997;28;20049;-50
2022/02/14 03:11:24;;;;;;;9.13;3.35;;;6.90;99.30;;;;;;5052618;28;20404;-45
2022/02/14 03:13:51;;;;;;;5.00;3.13;;;7.00;99.20;;;;;;5052368;28;20040;-49
2022/02/14 03:16:17;;;;;;;5.03;3.28;;;7.00;99.20;;;;;;5052479;28;20025;-49
2022/02/14 03:18:43;;;;;;;5.85;3.80;;;6.90;99.30;;;;;;5052522;28;20021;-46
2022/02/14 03:21:09;;;;;;;7.95;3.28;;;6.90;99.50;;;;;;5052596;28;20029;-49
2022/02/14 03:23:35;;;;;;;3.28;2.88;;;6.90;99.30;;;;;;5052452;28;20029;-46
2022/02/14 03:26:02;;;;;;;4.00;3.05;;;7.00;99.60;;;;;;5052547;28;20457;-49
2022/02/14 03:28:28;;;;;;;4.63;2.80;;;7.00;99.30;;;;;;5052484;28;20029;-49
2022/02/14 03:30:54;;;;;;;7.63;3.60;;;7.00;99.30;;;;;;5052395;28;20029;-51
2022/02/14 03:33:20;;;;;;;8.45;3.58;;;7.10;99.10;;;;;;5052026;28;20029;-50
2022/02/14 03:35:46;;;;;;;9.30;4.57;;;7.10;99.10;;;;;;5052076;28;20413;-50
2022/02/14 03:38:12;;;;;;;5.45;3.35;;;7.10;99.30;;;;;;5050970;28;20448;-49
2022/02/14 03:40:38;;;;;;;6.20;3.33;;;7.00;99.30;;;;;;5052563;28;20036;-48
2022/02/14 03:43:06;;;;;;;7.03;4.10;;;7.00;99.30;;;;;;5051893;28;20021;-49
2022/02/14 03:45:32;;;;;;;11.52;3.90;;;7.00;99.40;;;;;;5052240;28;20480;-46
2022/02/14 03:47:58;;;;;;;6.45;3.63;;;7.00;99.40;;;;;;5052374;28;20032;-52
2022/02/14 03:50:24;;;;;;;6.70;3.78;;;6.90;99.50;;;;;;5050815;28;20124;-48
2022/02/14 03:52:49;;;;;;;4.70;3.53;;;6.90;99.70;;;;;;5050598;28;20056;-46
2022/02/14 03:55:15;;;;;;;7.05;4.00;;;6.90;99.70;;;;;;5052227;28;20035;-48
2022/02/14 03:57:45;;;;;;;5.03;3.15;;;6.90;99.60;;;;;;5051915;28;20017;-49
2022/02/14 04:00:12;;;;;;;6.53;3.75;;;6.80;99.70;;;;;;5051584;28;20017;-48
2022/02/14 04:02:39;;;;;;;5.63;3.85;;;6.70;99.70;;;;;;5052212;28;20028;-44
2022/02/14 04:05:05;;;;;;;6.35;4.03;;;6.70;99.70;;;;;;5051649;28;20029;-49
2022/02/14 04:07:31;;;;;;;6.63;3.88;;;6.70;99.80;;;;;;5050693;28;20365;-50
2022/02/14 04:09:57;;;;;;;4.88;3.92;;;6.50;99.90;;;;;;5051828;28;20021;-51
2022/02/14 04:12:23;;;;;;;7.38;3.90;;;6.50;99.90;;;;;;5051967;28;20029;-54
2022/02/14 04:14:48;;;;;;;13.82;4.00;;;6.50;99.90;;;;;;5053843;28;20032;-48
2022/02/14 04:17:14;;;;;;;5.80;4.40;;;6.40;99.90;;;;;;5062262;28;20051;-52
2022/02/14 04:19:40;;;;;;;11.07;4.95;;;6.40;99.90;;;;;;5062535;28;20028;-51
2022/02/14 04:22:06;;;;;;;8.40;4.22;;;6.40;99.90;;;;;;5053149;28;20503;-47
2022/02/14 04:24:31;;;;;;;4.93;4.10;;;6.30;99.90;;;;;;5051455;28;20029;-45
2022/02/14 04:26:57;;;;;;;8.20;4.38;;;6.30;99.90;;;;;;5051692;28;20080;-54
2022/02/14 04:29:23;;;;;;;4.38;3.88;;;6.20;99.90;;;;;;5051522;28;20044;-50
2022/02/14 04:31:49;;;;;;;6.88;3.88;;;6.10;99.90;;;;;;5051523;28;20388;-46
2022/02/14 04:34:18;;;;;;;11.15;4.72;;;6.10;99.90;;;;;;5050985;28;20021;-49
2022/02/14 04:36:47;;;;;;;5.78;3.97;;;6.00;99.90;;;;;;5051807;28;20021;-51
2022/02/14 04:39:13;;;;;;;6.18;4.35;;;5.90;99.90;;;;;;5051438;28;20024;-47
2022/02/14 04:41:39;;;;;;;10.63;4.97;;;5.80;99.90;;;;;;5051591;28;20025;-48
2022/02/14 04:44:05;;;;;;;7.88;4.38;;;5.80;99.90;;;;;;5049786;28;20480;-44
2022/02/14 04:46:30;;;;;;;8.65;4.55;;;5.70;99.90;;;;;;5050228;28;20370;-52
2022/02/14 04:48:56;;;;;;;7.57;4.60;;;5.60;99.90;;;;;;5054456;28;20028;-51
2022/02/14 04:51:21;;;;;;;5.55;4.00;;;5.60;99.90;;;;;;5055305;28;20029;-49
2022/02/14 04:53:47;;;;;;;10.65;4.35;;;5.60;99.90;;;;;;5054878;28;20484;-45
2022/02/14 04:56:13;;;;;;;5.57;4.07;;;5.60;99.90;;;;;;5055462;28;20028;-50
2022/02/14 04:58:38;;;;;;;8.68;5.10;;;5.60;99.90;;;;;;5055379;28;20107;-47
2022/02/14 05:01:04;;;;;;;11.40;4.75;;;5.60;99.90;;;;;;5054894;28;20361;-52
2022/02/14 05:03:29;;;;;;;6.50;5.32;;;5.50;99.90;;;;;;5053607;28;20033;-51
2022/02/14 05:05:55;;;;;;;12.05;4.53;;;5.50;99.90;;;;;;5055175;28;20043;-45
2022/02/14 05:08:20;;;;;;;13.45;4.38;;;5.50;99.90;;;;;;5055277;28;20411;-49
2022/02/14 05:10:47;;;;;;;11.15;4.53;;;5.50;99.90;;;;;;5055439;28;20021;-50
2022/02/14 05:13:12;;;;;;;6.50;4.25;;;5.50;99.90;;;;;;5054847;28;20108;-52
2022/02/14 05:15:38;;;;;;;5.43;4.20;;;5.50;99.90;;;;;;5055011;28;20421;-51
2022/02/14 05:18:03;;;;;;;5.55;3.60;;;5.50;99.90;;;;;;5055468;28;20025;-50
2022/02/14 05:20:29;;;;;;;10.25;4.00;;;5.50;99.90;;;;;;5055037;28;20500;-49
2022/02/14 05:22:54;;;;;;;7.80;3.85;;;5.50;99.90;;;;;;5053570;28;20070;-47
2022/02/14 05:25:20;;;;;;;10.10;3.90;;;5.50;99.90;;;;;;5054789;28;20075;-52
2022/02/14 05:27:45;;;;;;;11.82;5.13;;;5.40;99.90;;;;;;5054837;28;20025;-44
2022/02/14 05:30:11;;;;;;;8.00;4.40;;;5.30;99.90;;;;;;5054515;28;20028;-49
2022/02/14 05:32:37;;;;;;;12.25;4.43;;;5.30;99.90;;;;;;5053574;28;20039;-48
2022/02/14 05:35:03;;;;;;;4.88;4.10;;;5.30;99.90;;;;;;5054438;28;20029;-51
2022/02/14 05:37:29;;;;;;;7.53;4.25;;;5.30;99.90;;;;;;5054732;28;20053;-47
2022/02/14 05:39:54;;;;;;;10.40;4.57;;;5.30;99.90;;;;;;5056083;28;20032;-48
2022/02/14 05:42:20;;;;;;;7.53;4.38;;;5.40;99.90;;;;;;5056358;28;20025;-54
2022/02/14 05:44:45;;;;;;;12.05;4.28;;;5.50;99.90;;;;;;5054385;28;20032;-56
2022/02/14 05:47:11;;;;;;;10.45;3.55;;;5.50;99.90;;;;;;5056765;28;20079;-54
2022/02/14 05:49:36;;;;;;;6.57;4.20;;;5.70;99.90;;;;;;5056786;28;20029;-48
2022/02/14 05:52:03;;;;;;;13.48;4.28;;;5.70;99.90;;;;;;5054434;28;20025;-49
2022/02/14 05:54:29;;;;;;;7.30;4.22;;;5.80;99.90;;;;;;5054042;28;20496;-45
2022/02/14 05:56:54;;;;;;;6.47;4.10;;;5.80;99.90;;;;;;5052910;28;20063;-50
2022/02/14 05:59:20;;;;;;;6.63;4.00;;;5.90;99.90;;;;;;5053865;28;20017;-49
2022/02/14 06:01:46;;;;;;;5.97;4.22;;;5.80;99.90;;;;;;5054392;28;20056;-44
2022/02/14 06:04:12;;;;;;;4.97;3.42;;;5.80;99.90;;;;;;5053891;28;20330;-47
2022/02/14 06:06:38;;;;;;;4.57;3.72;;;5.80;99.90;;;;;;5054255;28;20514;-48
2022/02/14 06:09:03;;;;;;;7.82;5.13;;;5.90;99.90;;;;;;5054329;28;20021;-50
2022/02/14 06:11:29;;;;;;;7.28;4.03;;;5.90;99.90;;;;;;5052732;28;20025;-44
2022/02/14 06:13:54;;;;;;;7.88;4.60;;;5.90;99.90;;;;;;5053542;28;20111;-47
2022/02/14 06:16:20;;;;;;;7.93;4.10;;;6.00;99.90;;;;;;5054078;28;20029;-48
2022/02/14 06:18:46;;;;;;;6.07;4.35;;;6.10;99.90;;;;;;5053945;28;20033;-47
2022/02/14 06:21:11;;;;;;;6.22;4.20;;;6.10;99.90;;;;;;5052811;28;20053;-47
2022/02/14 06:23:37;;;;;;;6.22;4.38;;;6.20;99.90;;;;;;5053399;28;20029;-52
2022/02/14 06:26:03;;;;;;;6.47;3.63;;;6.20;99.90;;;;;;5053738;28;20059;-46
2022/02/14 06:28:29;;;;;;;9.88;4.03;;;6.30;99.90;;;;;;5053648;28;20074;-49
2022/02/14 06:30:55;;;;;;;5.95;3.70;;;6.40;99.90;;;;;;5053765;28;20032;-48
2022/02/14 06:33:20;;;;;;;5.88;3.70;;;6.40;99.90;;;;;;5051914;28;20032;-48
2022/02/14 06:35:46;;;;;;;10.00;4.40;;;6.40;99.90;;;;;;5053494;28;20070;-49
2022/02/14 06:38:11;;;;;;;10.18;4.22;;;6.40;99.90;;;;;;5053410;28;20370;-48
2022/02/14 06:40:37;;;;;;;7.28;3.63;;;6.40;99.90;;;;;;5052188;28;20124;-43
2022/02/14 06:43:02;;;;;;;7.40;4.32;;;6.40;99.90;;;;;;5052940;28;20036;-49
2022/02/14 06:45:28;;;;;;;7.43;4.50;;;6.40;99.90;;;;;;5053509;28;20575;-52
2022/02/14 06:47:53;;;;;;;6.68;3.72;;;6.50;99.90;;;;;;5053387;28;20021;-53
2022/02/14 06:50:19;;;;;;;7.60;3.65;;;6.40;99.90;;;;;;5053409;28;20033;-44
2022/02/14 06:52:46;;;;;;;8.38;4.13;;;6.50;99.90;;;;;;5053133;28;20526;-50
2022/02/14 06:55:12;;;;;;;7.57;4.72;;;6.60;99.90;;;;;;5053239;28;20032;-49
2022/02/14 06:57:38;;;;;;;10.50;3.83;;;6.60;99.90;;;;;;5053247;28;20025;-49
2022/02/14 07:00:08;;;;;;;9.23;4.13;;;6.60;99.90;;;;;;5053264;28;20029;-52
2022/02/14 07:02:34;;;;;;;6.53;3.90;;;6.70;99.90;;;;;;5053332;28;20369;-48
2022/02/14 07:04:59;;;;;;;9.15;4.30;;;6.70;99.90;;;;;;5053061;28;20025;-47
2022/02/14 07:07:25;;;;;;;7.68;5.45;;;6.80;99.90;;;;;;5053295;28;20041;-50
2022/02/14 07:09:50;;;;;;;15.05;4.15;;;6.80;99.90;;;;;;5052762;28;20055;-42
2022/02/14 07:12:16;;;;;;;11.73;5.15;;;6.80;99.90;;;;;;5053102;28;20051;-54
2022/02/14 07:14:42;;;;;;;23.98;5.15;;;6.90;99.90;;;;;;5054510;28;20065;-55
2022/02/14 07:17:07;;;;;;;10.85;4.45;;;6.90;99.90;;;;;;5053831;28;20017;-50
2022/02/14 07:19:33;;;;;;;5.82;4.40;;;6.90;99.90;;;;;;5053175;28;20135;-55
2022/02/14 07:21:58;;;;;;;8.63;4.70;;;7.00;99.90;;;;;;5073653;22;20048;-50
2022/02/14 07:24:24;;;;;;;12.80;4.70;;;6.90;99.90;;;;;;5051607;28;20029;-47
2022/02/14 07:26:50;;;;;;;6.72;4.78;;;6.90;99.90;;;;;;5052311;28;20516;-54
2022/02/14 07:29:15;;;;;;;12.60;4.90;;;7.00;99.90;;;;;;5052302;28;20060;-54
2022/02/14 07:31:41;;;;;;;6.60;4.65;;;7.00;99.90;;;;;;5052528;28;20021;-53
2022/02/14 07:34:07;;;;;;;9.30;4.55;;;7.10;99.90;;;;;;5051926;28;20108;-49
2022/02/14 07:36:33;;;;;;;5.50;3.65;;;7.20;99.90;;;;;;5052299;28;20536;-51
2022/02/14 07:38:59;;;;;;;7.47;4.53;;;7.10;99.90;;;;;;5052405;28;20058;-49
2022/02/14 07:41:24;;;;;;;6.00;4.22;;;7.20;99.90;;;;;;5052059;28;20082;-49
2022/02/14 07:43:50;;;;;;;4.10;3.67;;;7.20;99.90;;;;;;5051712;28;20108;-50
2022/02/14 07:46:18;;;;;;;12.35;5.38;;;7.10;99.90;;;;;;5052282;28;20107;-49
2022/02/14 07:48:46;;;;;;;6.35;4.03;;;7.10;99.90;;;;;;5052132;28;20021;-45
2022/02/14 07:51:16;;;;;;;8.73;4.55;;;7.20;99.90;;;;;;5052093;28;20107;-55
2022/02/14 07:53:42;;;;;;;7.45;3.97;;;7.30;99.90;;;;;;5047683;28;20030;-50
2022/02/14 07:56:12;;;;;;;9.35;3.88;;;7.50;99.90;;;;;;5043696;28;20113;-47
2022/02/14 07:58:41;;;;;;;8.25;3.53;;;7.40;99.90;;;;;;5051867;28;20017;-51
2022/02/14 08:01:07;;;;;;;5.90;3.60;;;7.40;99.90;;;;;;5051251;28;20551;-47
2022/02/14 08:03:32;;;;;;;6.72;4.25;;;7.40;99.90;;;;;;5051412;28;20060;-49
2022/02/14 08:05:59;;;;;;;9.02;4.93;;;7.30;99.90;;;;;;5051752;28;20025;-51
2022/02/14 08:08:24;;;;;;;6.45;4.25;;;7.30;99.90;;;;;;5051805;28;20025;-49
2022/02/14 08:10:51;;;;;;;9.35;3.92;;;7.30;99.90;;;;;;5051516;28;20508;-46
2022/02/14 08:13:16;;;;;;;13.50;4.63;;;7.40;99.90;;;;;;5050397;28;20024;-49
2022/02/14 08:15:42;;;;;;;7.93;4.10;;;7.40;99.90;;;;;;5050804;28;20074;-53
2022/02/14 08:18:09;;;;;;;9.10;3.95;;;7.50;99.90;;;;;;5050154;28;20488;-49
2022/02/14 08:20:35;;;;;;;11.85;3.95;;;7.60;99.90;;;;;;5039079;28;20175;-46
2022/02/14 08:23:02;;;;;;;11.35;4.18;;;7.60;99.90;;;;;;5050660;28;20068;-48
2022/02/14 08:25:28;;;;;;;5.70;3.85;;;7.80;99.90;;;;;;5036950;28;20030;-55
2022/02/14 08:27:53;;;;;;;6.53;3.75;;;7.90;99.90;;;;;;5046891;28;20028;-58
2022/02/14 08:30:19;;;;;;;9.52;3.95;;;7.90;99.90;;;;;;5033032;28;20028;-48
2022/02/14 08:32:44;;;;;;;5.03;3.55;;;8.00;99.90;;;;;;5046590;28;20119;-46
2022/02/14 08:35:11;;;;;;;5.57;4.13;;;8.10;99.90;;;;;;5044319;28;20021;-48
2022/02/14 08:37:37;;;;;;;8.20;4.05;;;8.10;99.90;;;;;;5038206;28;20033;-61
2022/02/14 08:40:03;;;;;;;8.65;4.43;;;8.20;99.90;;;;;;5050679;28;20412;-51
2022/02/14 08:42:28;;;;;;;9.55;4.70;;;8.10;99.90;;;;;;5050981;28;20033;-50
2022/02/14 08:44:56;;;;;;;5.70;3.80;;;8.20;99.90;;;;;;5050778;28;20374;-51
2022/02/14 08:47:21;;;;;;;7.80;4.80;;;8.10;99.90;;;;;;5050123;28;20086;-51
2022/02/14 08:49:47;;;;;;;8.70;4.13;;;8.10;99.90;;;;;;5051292;28;20032;-48
2022/02/14 08:52:12;;;;;;;8.93;4.72;;;8.20;99.90;;;;;;5051178;28;20031;-53
2022/02/14 08:54:38;;;;;;;10.23;3.72;;;8.20;99.90;;;;;;5050912;28;20129;-50
2022/02/14 08:57:03;;;;;;;5.10;3.30;;;8.30;99.90;;;;;;5051283;28;20449;-48
2022/02/14 08:59:29;;;;;;;9.68;4.43;;;8.20;99.90;;;;;;5051292;28;20071;-47
2022/02/14 09:01:56;;;;;;;5.35;4.05;;;8.20;99.90;;;;;;5050915;28;20017;-53
2022/02/14 09:04:22;;;;;;;9.15;4.65;;;8.20;99.90;;;;;;5051418;28;20104;-49
2022/02/14 09:06:48;;;;;;;6.85;5.20;;;8.30;99.90;;;;;;5051282;28;20021;-49
2022/02/14 09:09:13;;;;;;;6.18;4.38;;;8.30;99.90;;;;;;5051041;28;20047;-53
2022/02/14 09:11:41;;;;;;;11.02;4.03;;;8.40;99.90;;;;;;5051095;28;20492;-53
2022/02/14 09:14:07;;;;;;;7.32;4.30;;;8.40;99.90;;;;;;5050988;28;20025;-46
2022/02/14 09:16:32;;;;;;;9.80;4.55;;;8.40;99.90;;;;;;5051169;28;20492;-46
2022/02/14 09:18:58;;;;;;;8.70;4.25;;;8.40;99.90;;;;;;5049911;28;20035;-47
2022/02/14 09:21:23;;;;;;;7.68;4.50;;;8.50;99.90;;;;;;5049564;28;20063;-53
2022/02/14 09:23:49;;;;;;;10.63;4.10;;;8.50;99.90;;;;;;5051080;28;20034;-51
2022/02/14 09:26:15;;;;;;;7.20;3.90;;;8.50;99.90;;;;;;5050990;28;20045;-52
2022/02/14 09:28:40;;;;;;;9.27;4.28;;;8.60;99.90;;;;;;5051006;28;20036;-51
2022/02/14 09:31:07;;;;;;;10.20;5.22;;;8.70;99.90;;;;;;5050771;28;20024;-51
2022/02/14 09:33:32;;;;;;;6.68;4.32;;;8.70;99.90;;;;;;5051156;28;20075;-52
2022/02/14 09:35:58;;;;;;;18.88;4.45;;;8.80;99.90;;;;;;5054521;28;20029;-51
2022/02/14 09:38:26;;;;;;;7.03;4.38;;;9.00;99.90;;;;;;5054018;28;20025;-48
2022/02/14 09:40:52;;;;;;;8.73;4.65;;;9.20;99.90;;;;;;5053368;28;20013;-49
2022/02/14 09:43:18;;;;;;;14.32;5.25;;;9.30;99.90;;;;;;5054185;28;20082;-48
2022/02/14 09:45:43;;;;;;;4.82;4.30;;;9.50;99.90;;;;;;5054482;28;20075;-53
2022/02/14 09:48:11;;;;;;;6.72;3.90;;;9.50;99.90;;;;;;5054395;28;20027;-49
2022/02/14 09:50:38;;;;;;;17.70;5.47;;;9.70;99.90;;;;;;5054346;28;20099;-49
2022/02/14 09:53:07;;;;;;;18.65;11.15;;;9.80;99.90;;;;;;5054216;28;20508;-50
2022/02/14 09:55:33;;;;;;;13.68;6.80;;;9.90;99.90;;;;;;5054215;28;20485;-49
2022/02/14 09:57:59;;;;;;;7.18;5.43;;;9.90;99.90;;;;;;5054143;28;20518;-49
2022/02/14 10:00:24;;;;;;;8.25;4.32;;;9.90;99.90;;;;;;5054203;28;20029;-50
2022/02/14 10:03:13;;;;;;;6.15;4.13;;;10.60;99.90;;;;;;5052137;28;20017;-49
2022/02/14 10:05:47;;;;;;;11.27;3.80;;;10.90;99.30;;;;;;5054073;28;20036;-52
2022/02/14 10:08:35;;;;;;;9.27;4.25;;;10.70;99.30;;;;;;5052331;28;20503;-50
2022/02/14 10:11:14;;;;;;;10.95;4.47;;;11.10;99.40;;;;;;5049137;28;20060;-52
2022/02/14 10:13:40;;;;;;;8.07;4.78;;;11.50;98.60;;;;;;5040473;28;20036;-47
2022/02/14 10:16:13;;;;;;;9.13;4.53;;;11.60;98.60;;;;;;5046043;28;20384;-52
2022/02/14 10:18:40;;;;;;;6.80;3.78;;;11.70;98.60;;;;;;5053455;28;20074;-53
2022/02/14 10:21:25;;;;;;;7.22;4.22;;;11.70;98.90;;;;;;5053421;28;20503;-50
2022/02/14 10:24:10;;;;;;;9.02;3.85;;;12.40;98.40;;;;;;5042705;28;20064;-49
2022/02/14 10:27:02;;;;;;;7.32;3.50;;;13.10;97.40;;;;;;5053626;28;20111;-51
2022/02/14 10:29:32;;;;;;;9.40;4.00;;;14.20;95.80;;;;;;5048889;28;20581;-51
2022/02/14 10:31:59;;;;;;;6.15;3.50;;;14.40;95.10;;;;;;5045374;28;20029;-51
2022/02/14 10:34:37;;;;;;;10.40;4.38;;;13.90;95.20;;;;;;5035931;28;20030;-54
2022/02/14 10:37:03;;;;;;;6.57;4.25;;;13.10;96.90;;;;;;5037470;28;20045;-52
2022/02/14 10:39:31;;;;;;;7.50;4.57;;;13.00;97.30;;;;;;5053518;28;20024;-51
2022/02/14 10:42:05;;;;;;;7.30;4.18;;;12.40;98.40;;;;;;5053361;28;20103;-51
2022/02/14 10:45:10;;;;;;;7.90;5.20;;;12.00;99.10;;;;;;5052633;28;20025;-51
2022/02/14 10:47:35;;;;;;;19.48;5.07;;;11.80;99.80;;;;;;5049973;28;20048;-51
2022/02/14 10:50:01;;;;;;;9.57;4.25;;;11.60;99.90;;;;;;5045501;28;20032;-55
2022/02/14 10:52:44;;;;;;;8.77;4.75;;;11.50;99.90;;;;;;5052872;28;20450;-50
2022/02/14 10:55:18;;;;;;;8.20;4.03;;;11.40;99.90;;;;;;5052908;28;20052;-50
2022/02/14 10:57:46;;;;;;;11.75;4.20;;;11.40;99.90;;;;;;5051770;28;20056;-54
2022/02/14 11:00:14;;;;;;;7.97;4.80;;;11.30;99.90;;;;;;5053215;28;20439;-49
2022/02/14 11:02:43;;;;;;;16.13;4.03;;;11.30;99.90;;;;;;5052803;28;20484;-47
2022/02/14 11:05:10;;;;;;;5.75;3.50;;;11.30;99.90;;;;;;5052212;28;20053;-54
2022/02/14 11:07:36;;;;;;;10.50;4.47;;;11.30;99.90;;;;;;5052795;28;20559;-54
2022/02/14 11:10:04;;;;;;;6.25;3.97;;;11.40;99.90;;;;;;5052105;28;20029;-48
2022/02/14 11:12:34;;;;;;;10.85;4.28;;;11.40;99.90;;;;;;5043913;28;20025;-53
2022/02/14 11:15:01;;;;;;;8.73;4.35;;;11.40;99.90;;;;;;5042072;28;20135;-51
2022/02/14 11:17:29;;;;;;;9.32;3.58;;;11.50;99.90;;;;;;5047182;28;20025;-51
2022/02/14 11:19:59;;;;;;;11.48;3.78;;;11.50;99.90;;;;;;5032693;28;20025;-50
2022/02/14 11:22:29;;;;;;;28.75;16.45;;;11.50;99.90;;;;;;5030623;28;20040;-47
2022/02/14 11:25:20;;;;;;;26.00;14.95;;;11.40;99.90;;;;;;5039545;28;20051;-51
2022/02/14 11:28:07;;;;;;;8.65;4.28;;;11.50;99.90;;;;;;5023226;28;20069;-53
2022/02/14 11:30:33;;;;;;;7.53;4.40;;;11.60;99.90;;;;;;5036463;28;20099;-52
2022/02/14 11:33:13;;;;;;;9.20;4.25;;;11.70;99.90;;;;;;5031987;28;20491;-54
2022/02/14 11:35:39;;;;;;;7.93;4.00;;;11.80;99.90;;;;;;5032254;28;20087;-53
2022/02/14 11:38:06;;;;;;;6.20;3.78;;;11.80;99.90;;;;;;5032269;28;20021;-53
2022/02/14 11:40:40;;;;;;;8.95;4.30;;;11.80;99.90;;;;;;5031016;28;20032;-51
2022/02/14 11:43:07;;;;;;;7.05;4.18;;;11.80;99.90;;;;;;5043592;28;20021;-52
2022/02/14 11:45:33;;;;;;;5.53;3.72;;;11.80;99.90;;;;;;5032149;28;20037;-50
2022/02/14 11:48:25;;;;;;;7.80;3.75;;;11.80;99.90;;;;;;5047520;28;20396;-53
2022/02/14 11:51:04;;;;;;;10.27;5.53;;;11.70;99.90;;;;;;5051947;28;20031;-52
2022/02/14 11:53:32;;;;;;;9.27;4.38;;;11.70;99.90;;;;;;5036753;28;20025;-50
2022/02/14 11:56:30;;;;;;;9.40;3.67;;;11.70;99.90;;;;;;5031862;28;20053;-53
2022/02/14 11:59:07;;;;;;;8.07;3.90;;;11.70;99.90;;;;;;4988699;28;20484;-50
2022/02/14 12:01:45;;;;;;;8.00;4.03;;;11.70;99.90;;;;;;5042981;28;20033;-50
2022/02/14 12:04:36;;;;;;;7.35;3.55;;;11.60;99.90;;;;;;5050831;28;20036;-47
2022/02/14 12:07:17;;;;;;;6.65;4.07;;;11.70;99.90;;;;;;5043096;28;20025;-50
2022/02/14 12:09:57;;;;;;;11.18;4.30;;;11.60;99.90;;;;;;5051923;28;20037;-56
2022/02/14 12:12:45;;;;;;;6.10;3.45;;;11.60;99.90;;;;;;5030472;28;20374;-52
2022/02/14 12:20:34;;;;;;;10.50;3.97;;;11.50;99.90;;;;;;5031345;28;20160;-50
2022/02/14 12:21:10;;;;;;;10.30;4.78;;;11.60;99.90;;;;;;5031125;28;20068;-46
2022/02/14 12:23:40;;;;;;;9.90;5.00;;;11.50;99.90;;;;;;5045022;28;20024;-55
2022/02/14 12:26:06;;;;;;;8.07;4.15;;;11.60;99.90;;;;;;5041910;28;20021;-52
2022/02/14 12:28:33;;;;;;;9.80;4.10;;;11.60;99.90;;;;;;5031454;28;20030;-51
2022/02/14 12:30:59;;;;;;;17.50;4.15;;;11.70;99.90;;;;;;5031093;28;20025;-53
2022/02/14 12:33:26;;;;;;;11.10;4.85;;;11.60;99.90;;;;;;5030872;28;20489;-51
2022/02/14 12:36:07;;;;;;;5.40;3.00;;;11.60;99.90;;;;;;5025979;28;20033;-53
2022/02/14 12:38:35;;;;;;;7.90;3.45;;;11.50;99.90;;;;;;5031076;28;20152;-51
2022/02/14 12:41:05;;;;;;;6.72;3.60;;;11.60;99.90;;;;;;5030967;28;20381;-48
2022/02/14 12:43:40;;;;;;;9.35;4.03;;;11.70;99.90;;;;;;5030836;28;20025;-48
2022/02/14 12:46:12;;;;;;;6.60;3.45;;;11.80;99.90;;;;;;5031671;28;20111;-50
2022/02/14 12:48:40;;;;;;;6.25;2.67;;;11.80;99.90;;;;;;5030838;28;20388;-51
2022/02/14 12:51:13;;;;;;;9.63;3.92;;;11.80;99.90;;;;;;5031076;28;20021;-53
2022/02/14 12:53:47;;;;;;;7.75;4.85;;;11.80;99.90;;;;;;5030693;28;20032;-55
2022/02/14 12:56:19;;;;;;;5.93;3.97;;;11.80;99.90;;;;;;5031053;28;20017;-56
2022/02/14 12:59:05;;;;;;;5.35;3.80;;;11.90;99.90;;;;;;5033621;28;20036;-52